sensor_id;sensor_type;location;lat;lon;timestamp;P1;durP1;ratioP1;P2;durP2;ratioP2
67227;SDS011;54139;42.616;23.748;2023-10-09T00:01:05;14.18;;;3.90;;
67227;SDS011;54139;42.616;23.748;2023-10-09T00:03:39;17.20;;;3.45;;
67227;SDS011;54139;42.616;23.748;2023-10-09T00:06:08;13.25;;;3.40;;
67227;SDS011;54139;42.616;23.748;2023-10-09T00:08:40;9.40;;;3.28;;
67227;SDS011;54139;42.616;23.748;2023-10-09T00:11:10;11.73;;;3.88;;
67227;SDS011;54139;42.616;23.748;2023-10-09T00:13:39;14.13;;;3.58;;
67227;SDS011;54139;42.616;23.748;2023-10-09T00:16:14;13.18;;;3.70;;
67227;SDS011;54139;42.616;23.748;2023-10-09T00:18:58;14.68;;;3.90;;
67227;SDS011;54139;42.616;23.748;2023-10-09T00:21:38;17.77;;;3.42;;
67227;SDS011;54139;42.616;23.748;2023-10-09T00:24:04;11.88;;;3.72;;
67227;SDS011;54139;42.616;23.748;2023-10-09T00:26:38;13.98;;;3.28;;
67227;SDS011;54139;42.616;23.748;2023-10-09T00:29:13;9.40;;;3.28;;
67227;SDS011;54139;42.616;23.748;2023-10-09T00:31:43;13.73;;;3.75;;
67227;SDS011;54139;42.616;23.748;2023-10-09T00:34:15;15.18;;;3.85;;
67227;SDS011;54139;42.616;23.748;2023-10-09T00:36:45;12.60;;;4.22;;
67227;SDS011;54139;42.616;23.748;2023-10-09T00:39:17;8.77;;;3.10;;
67227;SDS011;54139;42.616;23.748;2023-10-09T00:41:58;10.45;;;3.72;;
67227;SDS011;54139;42.616;23.748;2023-10-09T00:44:25;9.85;;;3.40;;
67227;SDS011;54139;42.616;23.748;2023-10-09T00:47:02;7.13;;;3.22;;
67227;SDS011;54139;42.616;23.748;2023-10-09T00:52:13;9.30;;;3.25;;
67227;SDS011;54139;42.616;23.748;2023-10-09T00:54:47;8.73;;;2.67;;
67227;SDS011;54139;42.616;23.748;2023-10-09T00:57:16;6.70;;;2.50;;
67227;SDS011;54139;42.616;23.748;2023-10-09T00:59:49;12.73;;;2.80;;
67227;SDS011;54139;42.616;23.748;2023-10-09T01:02:25;9.13;;;2.88;;
67227;SDS011;54139;42.616;23.748;2023-10-09T01:05:00;10.30;;;3.55;;
67227;SDS011;54139;42.616;23.748;2023-10-09T01:07:36;9.90;;;3.08;;
67227;SDS011;54139;42.616;23.748;2023-10-09T01:10:05;8.05;;;2.88;;
67227;SDS011;54139;42.616;23.748;2023-10-09T01:15:00;10.80;;;3.35;;
67227;SDS011;54139;42.616;23.748;2023-10-09T01:17:26;7.97;;;2.72;;
67227;SDS011;54139;42.616;23.748;2023-10-09T01:20:10;9.52;;;3.30;;
67227;SDS011;54139;42.616;23.748;2023-10-09T01:22:41;7.68;;;2.28;;
67227;SDS011;54139;42.616;23.748;2023-10-09T01:25:08;6.65;;;2.53;;
67227;SDS011;54139;42.616;23.748;2023-10-09T01:27:35;6.43;;;2.50;;
67227;SDS011;54139;42.616;23.748;2023-10-09T01:30:01;11.82;;;2.15;;
67227;SDS011;54139;42.616;23.748;2023-10-09T01:32:27;7.95;;;2.33;;
67227;SDS011;54139;42.616;23.748;2023-10-09T01:34:52;7.68;;;2.13;;
67227;SDS011;54139;42.616;23.748;2023-10-09T01:37:20;8.40;;;2.67;;
67227;SDS011;54139;42.616;23.748;2023-10-09T01:39:57;7.65;;;2.38;;
67227;SDS011;54139;42.616;23.748;2023-10-09T01:42:24;7.32;;;2.33;;
67227;SDS011;54139;42.616;23.748;2023-10-09T01:44:58;4.80;;;2.58;;
67227;SDS011;54139;42.616;23.748;2023-10-09T01:47:34;9.13;;;2.40;;
67227;SDS011;54139;42.616;23.748;2023-10-09T01:50:02;9.73;;;2.13;;
67227;SDS011;54139;42.616;23.748;2023-10-09T01:52:44;4.30;;;2.38;;
67227;SDS011;54139;42.616;23.748;2023-10-09T01:55:10;11.05;;;2.25;;
67227;SDS011;54139;42.616;23.748;2023-10-09T01:57:40;3.15;;;2.05;;
67227;SDS011;54139;42.616;23.748;2023-10-09T02:00:09;3.00;;;2.17;;
67227;SDS011;54139;42.616;23.748;2023-10-09T02:02:41;6.40;;;2.03;;
67227;SDS011;54139;42.616;23.748;2023-10-09T02:05:10;5.78;;;1.92;;
67227;SDS011;54139;42.616;23.748;2023-10-09T02:07:49;7.80;;;1.88;;
67227;SDS011;54139;42.616;23.748;2023-10-09T02:10:18;5.20;;;1.95;;
67227;SDS011;54139;42.616;23.748;2023-10-09T02:12:57;7.30;;;2.00;;
67227;SDS011;54139;42.616;23.748;2023-10-09T02:15:30;11.55;;;2.65;;
67227;SDS011;54139;42.616;23.748;2023-10-09T02:18:17;9.13;;;2.25;;
67227;SDS011;54139;42.616;23.748;2023-10-09T02:21:04;9.15;;;2.35;;
67227;SDS011;54139;42.616;23.748;2023-10-09T02:23:31;5.60;;;2.05;;
67227;SDS011;54139;42.616;23.748;2023-10-09T02:26:10;3.42;;;1.73;;
67227;SDS011;54139;42.616;23.748;2023-10-09T02:28:44;9.40;;;2.20;;
67227;SDS011;54139;42.616;23.748;2023-10-09T02:31:17;4.53;;;2.03;;
67227;SDS011;54139;42.616;23.748;2023-10-09T02:33:47;3.63;;;1.70;;
67227;SDS011;54139;42.616;23.748;2023-10-09T02:36:15;6.28;;;1.70;;
67227;SDS011;54139;42.616;23.748;2023-10-09T02:38:40;3.45;;;1.77;;
67227;SDS011;54139;42.616;23.748;2023-10-09T02:41:07;6.22;;;2.22;;
67227;SDS011;54139;42.616;23.748;2023-10-09T02:43:40;8.60;;;2.00;;
67227;SDS011;54139;42.616;23.748;2023-10-09T02:49:04;4.13;;;1.92;;
67227;SDS011;54139;42.616;23.748;2023-10-09T02:51:31;5.22;;;1.80;;
67227;SDS011;54139;42.616;23.748;2023-10-09T02:54:06;4.30;;;1.85;;
67227;SDS011;54139;42.616;23.748;2023-10-09T02:56:33;8.20;;;1.95;;
67227;SDS011;54139;42.616;23.748;2023-10-09T02:59:07;7.22;;;2.10;;
67227;SDS011;54139;42.616;23.748;2023-10-09T03:01:33;7.80;;;2.17;;
67227;SDS011;54139;42.616;23.748;2023-10-09T03:04:05;6.65;;;1.80;;
67227;SDS011;54139;42.616;23.748;2023-10-09T03:06:32;5.20;;;2.05;;
67227;SDS011;54139;42.616;23.748;2023-10-09T03:09:00;5.93;;;2.10;;
67227;SDS011;54139;42.616;23.748;2023-10-09T03:11:26;5.72;;;2.13;;
67227;SDS011;54139;42.616;23.748;2023-10-09T03:13:52;4.82;;;1.92;;
67227;SDS011;54139;42.616;23.748;2023-10-09T03:16:18;9.13;;;1.80;;
67227;SDS011;54139;42.616;23.748;2023-10-09T03:18:47;5.70;;;1.73;;
67227;SDS011;54139;42.616;23.748;2023-10-09T03:21:17;6.07;;;1.50;;
67227;SDS011;54139;42.616;23.748;2023-10-09T03:23:46;9.75;;;2.00;;
67227;SDS011;54139;42.616;23.748;2023-10-09T03:26:16;3.70;;;1.67;;
67227;SDS011;54139;42.616;23.748;2023-10-09T03:28:43;6.43;;;1.40;;
67227;SDS011;54139;42.616;23.748;2023-10-09T03:31:10;11.55;;;2.25;;
67227;SDS011;54139;42.616;23.748;2023-10-09T03:33:36;5.60;;;1.25;;
67227;SDS011;54139;42.616;23.748;2023-10-09T03:36:01;5.47;;;1.40;;
67227;SDS011;54139;42.616;23.748;2023-10-09T03:38:27;5.22;;;1.10;;
67227;SDS011;54139;42.616;23.748;2023-10-09T03:41:00;4.10;;;1.30;;
67227;SDS011;54139;42.616;23.748;2023-10-09T03:43:31;3.88;;;1.27;;
67227;SDS011;54139;42.616;23.748;2023-10-09T03:45:59;4.05;;;1.20;;
67227;SDS011;54139;42.616;23.748;2023-10-09T03:48:28;2.78;;;1.30;;
67227;SDS011;54139;42.616;23.748;2023-10-09T03:51:02;7.00;;;1.40;;
67227;SDS011;54139;42.616;23.748;2023-10-09T03:53:37;3.13;;;1.20;;
67227;SDS011;54139;42.616;23.748;2023-10-09T03:56:04;2.75;;;1.10;;
67227;SDS011;54139;42.616;23.748;2023-10-09T03:58:37;4.50;;;1.20;;
67227;SDS011;54139;42.616;23.748;2023-10-09T04:01:07;2.50;;;1.15;;
67227;SDS011;54139;42.616;23.748;2023-10-09T04:03:49;2.53;;;1.00;;
67227;SDS011;54139;42.616;23.748;2023-10-09T04:06:20;3.08;;;1.00;;
67227;SDS011;54139;42.616;23.748;2023-10-09T04:08:46;4.20;;;1.05;;
67227;SDS011;54139;42.616;23.748;2023-10-09T04:11:16;2.75;;;1.30;;
67227;SDS011;54139;42.616;23.748;2023-10-09T04:13:42;6.00;;;1.13;;
67227;SDS011;54139;42.616;23.748;2023-10-09T04:16:11;3.78;;;1.10;;
67227;SDS011;54139;42.616;23.748;2023-10-09T04:18:55;4.25;;;1.05;;
67227;SDS011;54139;42.616;23.748;2023-10-09T04:21:24;4.00;;;1.13;;
67227;SDS011;54139;42.616;23.748;2023-10-09T04:24:09;4.80;;;1.17;;
67227;SDS011;54139;42.616;23.748;2023-10-09T04:26:37;2.28;;;1.00;;
67227;SDS011;54139;42.616;23.748;2023-10-09T04:29:09;7.70;;;1.48;;
67227;SDS011;54139;42.616;23.748;2023-10-09T04:31:35;5.70;;;1.10;;
67227;SDS011;54139;42.616;23.748;2023-10-09T04:34:03;6.88;;;0.90;;
67227;SDS011;54139;42.616;23.748;2023-10-09T04:36:50;5.70;;;1.10;;
67227;SDS011;54139;42.616;23.748;2023-10-09T04:39:17;6.57;;;1.15;;
67227;SDS011;54139;42.616;23.748;2023-10-09T04:41:54;3.47;;;1.10;;
67227;SDS011;54139;42.616;23.748;2023-10-09T04:44:40;4.60;;;1.00;;
67227;SDS011;54139;42.616;23.748;2023-10-09T04:47:24;6.28;;;0.80;;
67227;SDS011;54139;42.616;23.748;2023-10-09T04:50:00;2.08;;;0.80;;
67227;SDS011;54139;42.616;23.748;2023-10-09T04:52:28;3.15;;;1.05;;
67227;SDS011;54139;42.616;23.748;2023-10-09T04:54:54;3.63;;;1.05;;
67227;SDS011;54139;42.616;23.748;2023-10-09T05:00:06;2.80;;;1.23;;
67227;SDS011;54139;42.616;23.748;2023-10-09T05:02:51;6.45;;;1.00;;
67227;SDS011;54139;42.616;23.748;2023-10-09T05:05:22;2.55;;;1.20;;
67227;SDS011;54139;42.616;23.748;2023-10-09T05:08:39;4.03;;;1.20;;
67227;SDS011;54139;42.616;23.748;2023-10-09T05:10:58;5.40;;;1.10;;
67227;SDS011;54139;42.616;23.748;2023-10-09T05:16:17;3.75;;;1.00;;
67227;SDS011;54139;42.616;23.748;2023-10-09T05:18:47;3.10;;;1.10;;
67227;SDS011;54139;42.616;23.748;2023-10-09T05:21:32;2.42;;;0.90;;
67227;SDS011;54139;42.616;23.748;2023-10-09T05:24:03;5.40;;;1.50;;
67227;SDS011;54139;42.616;23.748;2023-10-09T05:26:35;3.28;;;0.70;;
67227;SDS011;54139;42.616;23.748;2023-10-09T05:29:10;5.40;;;1.20;;
67227;SDS011;54139;42.616;23.748;2023-10-09T05:31:46;5.38;;;1.23;;
67227;SDS011;54139;42.616;23.748;2023-10-09T05:34:33;6.63;;;1.20;;
67227;SDS011;54139;42.616;23.748;2023-10-09T05:37:03;2.92;;;1.10;;
67227;SDS011;54139;42.616;23.748;2023-10-09T05:42:29;2.33;;;1.42;;
67227;SDS011;54139;42.616;23.748;2023-10-09T05:45:16;6.63;;;1.20;;
67227;SDS011;54139;42.616;23.748;2023-10-09T05:47:42;3.35;;;1.50;;
67227;SDS011;54139;42.616;23.748;2023-10-09T05:50:33;7.22;;;1.40;;
67227;SDS011;54139;42.616;23.748;2023-10-09T05:52:59;3.33;;;1.52;;
67227;SDS011;54139;42.616;23.748;2023-10-09T05:55:54;8.75;;;2.10;;
67227;SDS011;54139;42.616;23.748;2023-10-09T05:58:42;7.13;;;1.35;;
67227;SDS011;54139;42.616;23.748;2023-10-09T06:01:27;6.07;;;1.30;;
67227;SDS011;54139;42.616;23.748;2023-10-09T06:04:11;4.07;;;1.10;;
67227;SDS011;54139;42.616;23.748;2023-10-09T06:06:44;1.92;;;0.88;;
67227;SDS011;54139;42.616;23.748;2023-10-09T06:09:10;4.07;;;1.25;;
67227;SDS011;54139;42.616;23.748;2023-10-09T06:14:07;6.35;;;0.90;;
67227;SDS011;54139;42.616;23.748;2023-10-09T06:16:35;9.52;;;1.13;;
67227;SDS011;54139;42.616;23.748;2023-10-09T06:19:11;2.20;;;0.82;;
67227;SDS011;54139;42.616;23.748;2023-10-09T06:21:38;2.58;;;0.90;;
67227;SDS011;54139;42.616;23.748;2023-10-09T06:24:22;4.95;;;1.08;;
67227;SDS011;54139;42.616;23.748;2023-10-09T06:26:49;3.28;;;1.15;;
67227;SDS011;54139;42.616;23.748;2023-10-09T06:29:24;3.40;;;0.90;;
67227;SDS011;54139;42.616;23.748;2023-10-09T06:32:09;3.13;;;0.90;;
67227;SDS011;54139;42.616;23.748;2023-10-09T06:34:44;1.33;;;0.77;;
67227;SDS011;54139;42.616;23.748;2023-10-09T06:43:19;2.15;;;1.05;;
67227;SDS011;54139;42.616;23.748;2023-10-09T06:45:55;6.03;;;1.10;;
67227;SDS011;54139;42.616;23.748;2023-10-09T06:48:41;2.47;;;0.88;;
67227;SDS011;54139;42.616;23.748;2023-10-09T06:51:10;4.72;;;1.10;;
67227;SDS011;54139;42.616;23.748;2023-10-09T06:53:55;3.38;;;1.05;;
67227;SDS011;54139;42.616;23.748;2023-10-09T06:56:24;2.88;;;0.85;;
67227;SDS011;54139;42.616;23.748;2023-10-09T06:58:54;2.03;;;0.80;;
67227;SDS011;54139;42.616;23.748;2023-10-09T07:01:22;1.48;;;0.90;;
67227;SDS011;54139;42.616;23.748;2023-10-09T07:04:07;3.70;;;0.90;;
67227;SDS011;54139;42.616;23.748;2023-10-09T07:06:56;1.92;;;1.00;;
67227;SDS011;54139;42.616;23.748;2023-10-09T07:09:21;3.08;;;1.02;;
67227;SDS011;54139;42.616;23.748;2023-10-09T07:11:48;3.05;;;0.93;;
67227;SDS011;54139;42.616;23.748;2023-10-09T07:16:55;3.38;;;1.10;;
67227;SDS011;54139;42.616;23.748;2023-10-09T07:19:25;0.80;;;0.70;;
67227;SDS011;54139;42.616;23.748;2023-10-09T07:22:09;2.38;;;0.80;;
67227;SDS011;54139;42.616;23.748;2023-10-09T07:24:50;2.00;;;0.90;;
67227;SDS011;54139;42.616;23.748;2023-10-09T07:27:26;2.00;;;0.70;;
67227;SDS011;54139;42.616;23.748;2023-10-09T07:30:20;1.85;;;0.98;;
67227;SDS011;54139;42.616;23.748;2023-10-09T07:35:21;3.70;;;0.90;;
67227;SDS011;54139;42.616;23.748;2023-10-09T07:38:17;2.28;;;0.80;;
67227;SDS011;54139;42.616;23.748;2023-10-09T07:40:47;2.78;;;1.10;;
67227;SDS011;54139;42.616;23.748;2023-10-09T07:43:37;4.32;;;0.70;;
67227;SDS011;54139;42.616;23.748;2023-10-09T07:46:10;1.00;;;0.80;;
67227;SDS011;54139;42.616;23.748;2023-10-09T07:48:55;1.40;;;1.00;;
67227;SDS011;54139;42.616;23.748;2023-10-09T07:51:21;1.17;;;0.85;;
67227;SDS011;54139;42.616;23.748;2023-10-09T07:53:52;2.42;;;1.10;;
67227;SDS011;54139;42.616;23.748;2023-10-09T07:56:32;2.88;;;1.00;;
67227;SDS011;54139;42.616;23.748;2023-10-09T07:59:08;1.80;;;0.90;;
67227;SDS011;54139;42.616;23.748;2023-10-09T08:01:58;4.40;;;0.93;;
67227;SDS011;54139;42.616;23.748;2023-10-09T08:04:28;2.15;;;1.17;;
67227;SDS011;54139;42.616;23.748;2023-10-09T08:07:07;2.95;;;1.10;;
67227;SDS011;54139;42.616;23.748;2023-10-09T08:09:44;1.88;;;0.98;;
67227;SDS011;54139;42.616;23.748;2023-10-09T08:12:35;1.42;;;0.77;;
67227;SDS011;54139;42.616;23.748;2023-10-09T08:15:25;2.75;;;0.90;;
67227;SDS011;54139;42.616;23.748;2023-10-09T08:18:10;2.40;;;0.80;;
67227;SDS011;54139;42.616;23.748;2023-10-09T08:20:38;2.45;;;0.82;;
67227;SDS011;54139;42.616;23.748;2023-10-09T18:03:24;33.05;;;11.25;;
67227;SDS011;54139;42.616;23.748;2023-10-09T18:08:19;26.92;;;4.85;;
67227;SDS011;54139;42.616;23.748;2023-10-09T18:10:44;10.38;;;3.25;;
67227;SDS011;54139;42.616;23.748;2023-10-09T18:13:11;15.20;;;3.35;;
67227;SDS011;54139;42.616;23.748;2023-10-09T18:15:42;8.77;;;3.45;;
67227;SDS011;54139;42.616;23.748;2023-10-09T18:18:11;9.35;;;2.35;;
67227;SDS011;54139;42.616;23.748;2023-10-09T18:20:48;17.95;;;4.00;;
67227;SDS011;54139;42.616;23.748;2023-10-09T18:23:14;7.60;;;2.78;;
67227;SDS011;54139;42.616;23.748;2023-10-09T18:25:43;5.10;;;2.60;;
67227;SDS011;54139;42.616;23.748;2023-10-09T18:28:09;7.63;;;2.63;;
67227;SDS011;54139;42.616;23.748;2023-10-09T18:30:37;9.68;;;2.40;;
67227;SDS011;54139;42.616;23.748;2023-10-09T18:33:04;9.07;;;2.97;;
67227;SDS011;54139;42.616;23.748;2023-10-09T18:35:30;7.43;;;2.50;;
67227;SDS011;54139;42.616;23.748;2023-10-09T18:37:58;5.30;;;3.03;;
67227;SDS011;54139;42.616;23.748;2023-10-09T18:40:27;10.25;;;3.40;;
67227;SDS011;54139;42.616;23.748;2023-10-09T18:43:01;6.85;;;2.78;;
67227;SDS011;54139;42.616;23.748;2023-10-09T18:45:28;9.73;;;2.97;;
67227;SDS011;54139;42.616;23.748;2023-10-09T18:47:58;6.85;;;2.63;;
67227;SDS011;54139;42.616;23.748;2023-10-09T18:50:24;5.80;;;3.47;;
67227;SDS011;54139;42.616;23.748;2023-10-09T18:52:50;8.60;;;4.47;;
67227;SDS011;54139;42.616;23.748;2023-10-09T18:55:17;8.48;;;4.40;;
67227;SDS011;54139;42.616;23.748;2023-10-09T18:57:43;5.53;;;3.35;;
67227;SDS011;54139;42.616;23.748;2023-10-09T19:00:11;8.95;;;3.30;;
67227;SDS011;54139;42.616;23.748;2023-10-09T19:02:37;11.85;;;3.88;;
67227;SDS011;54139;42.616;23.748;2023-10-09T19:05:05;7.75;;;4.07;;
67227;SDS011;54139;42.616;23.748;2023-10-09T19:07:33;9.10;;;4.18;;
67227;SDS011;54139;42.616;23.748;2023-10-09T19:09:59;5.40;;;3.40;;
67227;SDS011;54139;42.616;23.748;2023-10-09T19:12:25;5.75;;;3.30;;
67227;SDS011;54139;42.616;23.748;2023-10-09T19:14:50;18.95;;;4.20;;
67227;SDS011;54139;42.616;23.748;2023-10-09T19:17:18;11.70;;;4.22;;
67227;SDS011;54139;42.616;23.748;2023-10-09T19:19:44;13.50;;;5.80;;
67227;SDS011;54139;42.616;23.748;2023-10-09T19:22:09;13.40;;;5.57;;
67227;SDS011;54139;42.616;23.748;2023-10-09T19:24:35;15.35;;;5.30;;
67227;SDS011;54139;42.616;23.748;2023-10-09T19:27:02;14.60;;;5.28;;
67227;SDS011;54139;42.616;23.748;2023-10-09T19:29:30;11.13;;;4.18;;
67227;SDS011;54139;42.616;23.748;2023-10-09T19:31:56;8.25;;;3.20;;
67227;SDS011;54139;42.616;23.748;2023-10-09T19:34:22;12.02;;;4.50;;
67227;SDS011;54139;42.616;23.748;2023-10-09T19:36:47;10.05;;;4.18;;
67227;SDS011;54139;42.616;23.748;2023-10-09T19:39:13;11.25;;;3.95;;
67227;SDS011;54139;42.616;23.748;2023-10-09T19:41:41;8.47;;;3.43;;
67227;SDS011;54139;42.616;23.748;2023-10-09T19:44:07;9.98;;;3.60;;
67227;SDS011;54139;42.616;23.748;2023-10-09T19:46:34;6.15;;;2.55;;
67227;SDS011;54139;42.616;23.748;2023-10-09T19:49:03;7.95;;;3.05;;
67227;SDS011;54139;42.616;23.748;2023-10-09T19:51:28;7.93;;;2.30;;
67227;SDS011;54139;42.616;23.748;2023-10-09T19:53:56;8.23;;;3.03;;
67227;SDS011;54139;42.616;23.748;2023-10-09T19:56:23;8.00;;;3.22;;
67227;SDS011;54139;42.616;23.748;2023-10-09T19:58:48;6.30;;;2.80;;
67227;SDS011;54139;42.616;23.748;2023-10-09T20:01:16;9.32;;;3.22;;
67227;SDS011;54139;42.616;23.748;2023-10-09T20:03:43;8.60;;;2.83;;
67227;SDS011;54139;42.616;23.748;2023-10-09T20:06:09;10.32;;;3.03;;
67227;SDS011;54139;42.616;23.748;2023-10-09T20:08:36;13.50;;;3.72;;
67227;SDS011;54139;42.616;23.748;2023-10-09T20:11:05;12.60;;;3.25;;
67227;SDS011;54139;42.616;23.748;2023-10-09T20:13:54;11.13;;;3.35;;
67227;SDS011;54139;42.616;23.748;2023-10-09T20:16:19;11.32;;;3.47;;
67227;SDS011;54139;42.616;23.748;2023-10-09T20:18:45;14.30;;;3.42;;
67227;SDS011;54139;42.616;23.748;2023-10-09T20:21:10;17.42;;;3.83;;
67227;SDS011;54139;42.616;23.748;2023-10-09T20:23:37;12.82;;;3.63;;
67227;SDS011;54139;42.616;23.748;2023-10-09T20:28:32;6.10;;;3.22;;
67227;SDS011;54139;42.616;23.748;2023-10-09T20:31:01;12.70;;;3.55;;
67227;SDS011;54139;42.616;23.748;2023-10-09T20:33:28;9.63;;;4.05;;
67227;SDS011;54139;42.616;23.748;2023-10-09T20:36:07;16.33;;;3.35;;
67227;SDS011;54139;42.616;23.748;2023-10-09T20:38:40;7.28;;;3.53;;
67227;SDS011;54139;42.616;23.748;2023-10-09T20:41:09;10.27;;;3.60;;
67227;SDS011;54139;42.616;23.748;2023-10-09T20:43:35;11.23;;;3.47;;
67227;SDS011;54139;42.616;23.748;2023-10-09T20:46:04;10.07;;;3.63;;
67227;SDS011;54139;42.616;23.748;2023-10-09T20:48:30;13.85;;;3.35;;
67227;SDS011;54139;42.616;23.748;2023-10-09T20:50:56;13.90;;;3.65;;
67227;SDS011;54139;42.616;23.748;2023-10-09T20:53:24;13.27;;;3.78;;
67227;SDS011;54139;42.616;23.748;2023-10-09T20:55:51;7.07;;;3.38;;
67227;SDS011;54139;42.616;23.748;2023-10-09T20:58:20;10.48;;;3.97;;
67227;SDS011;54139;42.616;23.748;2023-10-09T21:00:48;10.23;;;3.58;;
67227;SDS011;54139;42.616;23.748;2023-10-09T21:03:14;9.68;;;3.05;;
67227;SDS011;54139;42.616;23.748;2023-10-09T21:05:40;14.90;;;3.67;;
67227;SDS011;54139;42.616;23.748;2023-10-09T21:08:06;9.20;;;3.75;;
67227;SDS011;54139;42.616;23.748;2023-10-09T21:10:32;9.65;;;3.30;;
67227;SDS011;54139;42.616;23.748;2023-10-09T21:12:58;10.27;;;3.22;;
67227;SDS011;54139;42.616;23.748;2023-10-09T21:15:23;14.57;;;3.78;;
67227;SDS011;54139;42.616;23.748;2023-10-09T21:17:52;9.88;;;2.95;;
67227;SDS011;54139;42.616;23.748;2023-10-09T21:20:18;4.95;;;3.10;;
67227;SDS011;54139;42.616;23.748;2023-10-09T21:22:47;13.52;;;3.13;;
67227;SDS011;54139;42.616;23.748;2023-10-09T21:25:19;11.05;;;3.25;;
67227;SDS011;54139;42.616;23.748;2023-10-09T21:27:49;8.05;;;3.40;;
67227;SDS011;54139;42.616;23.748;2023-10-09T21:32:43;7.95;;;3.03;;
67227;SDS011;54139;42.616;23.748;2023-10-09T21:35:10;10.38;;;2.90;;
67227;SDS011;54139;42.616;23.748;2023-10-09T21:37:46;10.00;;;3.53;;
67227;SDS011;54139;42.616;23.748;2023-10-09T21:40:13;5.30;;;3.10;;
67227;SDS011;54139;42.616;23.748;2023-10-09T21:42:40;8.55;;;3.30;;
67227;SDS011;54139;42.616;23.748;2023-10-09T21:45:06;8.45;;;2.88;;
67227;SDS011;54139;42.616;23.748;2023-10-09T21:47:35;7.40;;;3.30;;
67227;SDS011;54139;42.616;23.748;2023-10-09T21:50:02;9.60;;;2.90;;
67227;SDS011;54139;42.616;23.748;2023-10-09T21:52:29;8.80;;;3.17;;
67227;SDS011;54139;42.616;23.748;2023-10-09T21:54:54;7.22;;;2.97;;
67227;SDS011;54139;42.616;23.748;2023-10-09T21:57:19;5.05;;;2.80;;
67227;SDS011;54139;42.616;23.748;2023-10-09T21:59:45;8.38;;;3.35;;
67227;SDS011;54139;42.616;23.748;2023-10-09T22:02:11;5.65;;;3.15;;
67227;SDS011;54139;42.616;23.748;2023-10-09T22:04:39;8.10;;;3.35;;
67227;SDS011;54139;42.616;23.748;2023-10-09T22:07:05;6.18;;;3.05;;
67227;SDS011;54139;42.616;23.748;2023-10-09T22:09:34;14.50;;;3.60;;
67227;SDS011;54139;42.616;23.748;2023-10-09T22:11:59;7.80;;;2.70;;
67227;SDS011;54139;42.616;23.748;2023-10-09T22:14:25;9.52;;;3.35;;
67227;SDS011;54139;42.616;23.748;2023-10-09T22:16:50;9.18;;;3.67;;
67227;SDS011;54139;42.616;23.748;2023-10-09T22:19:17;5.25;;;3.00;;
67227;SDS011;54139;42.616;23.748;2023-10-09T22:21:47;9.35;;;3.45;;
67227;SDS011;54139;42.616;23.748;2023-10-09T22:24:13;8.02;;;2.92;;
67227;SDS011;54139;42.616;23.748;2023-10-09T22:26:43;8.52;;;3.08;;
67227;SDS011;54139;42.616;23.748;2023-10-09T22:29:09;10.15;;;3.10;;
67227;SDS011;54139;42.616;23.748;2023-10-09T22:34:11;8.38;;;3.75;;
67227;SDS011;54139;42.616;23.748;2023-10-09T22:36:40;6.88;;;3.35;;
67227;SDS011;54139;42.616;23.748;2023-10-09T22:39:15;6.05;;;2.75;;
67227;SDS011;54139;42.616;23.748;2023-10-09T22:41:57;7.38;;;3.10;;
67227;SDS011;54139;42.616;23.748;2023-10-09T22:44:26;6.50;;;3.50;;
67227;SDS011;54139;42.616;23.748;2023-10-09T22:46:57;8.52;;;3.33;;
67227;SDS011;54139;42.616;23.748;2023-10-09T22:49:26;6.47;;;2.85;;
67227;SDS011;54139;42.616;23.748;2023-10-09T22:51:59;6.70;;;3.00;;
67227;SDS011;54139;42.616;23.748;2023-10-09T22:54:26;8.73;;;3.10;;
67227;SDS011;54139;42.616;23.748;2023-10-09T22:57:00;6.72;;;3.08;;
67227;SDS011;54139;42.616;23.748;2023-10-09T22:59:28;6.43;;;2.95;;
67227;SDS011;54139;42.616;23.748;2023-10-09T23:01:54;4.35;;;2.70;;
67227;SDS011;54139;42.616;23.748;2023-10-09T23:04:23;7.47;;;3.20;;
67227;SDS011;54139;42.616;23.748;2023-10-09T23:07:02;7.55;;;3.10;;
67227;SDS011;54139;42.616;23.748;2023-10-09T23:09:42;10.60;;;3.08;;
67227;SDS011;54139;42.616;23.748;2023-10-09T23:12:22;8.88;;;3.20;;
67227;SDS011;54139;42.616;23.748;2023-10-09T23:15:00;10.48;;;2.80;;
67227;SDS011;54139;42.616;23.748;2023-10-09T23:17:34;11.98;;;2.88;;
67227;SDS011;54139;42.616;23.748;2023-10-09T23:20:09;15.90;;;3.30;;
67227;SDS011;54139;42.616;23.748;2023-10-09T23:22:44;11.23;;;3.63;;
67227;SDS011;54139;42.616;23.748;2023-10-09T23:25:12;9.27;;;2.92;;
67227;SDS011;54139;42.616;23.748;2023-10-09T23:27:43;11.23;;;3.17;;
67227;SDS011;54139;42.616;23.748;2023-10-09T23:30:12;7.25;;;2.90;;
67227;SDS011;54139;42.616;23.748;2023-10-09T23:35:17;7.07;;;2.95;;
67227;SDS011;54139;42.616;23.748;2023-10-09T23:37:48;4.90;;;2.65;;
67227;SDS011;54139;42.616;23.748;2023-10-09T23:40:53;9.02;;;2.83;;
67227;SDS011;54139;42.616;23.748;2023-10-09T23:43:18;4.95;;;3.00;;
67227;SDS011;54139;42.616;23.748;2023-10-09T23:45:56;13.23;;;2.83;;
67227;SDS011;54139;42.616;23.748;2023-10-09T23:48:26;7.00;;;3.00;;
67227;SDS011;54139;42.616;23.748;2023-10-09T23:50:52;9.45;;;2.90;;
67227;SDS011;54139;42.616;23.748;2023-10-09T23:53:26;4.35;;;2.67;;
67227;SDS011;54139;42.616;23.748;2023-10-09T23:55:59;7.55;;;3.13;;
67227;SDS011;54139;42.616;23.748;2023-10-09T23:58:37;8.70;;;3.08;;
